sensor_id;sensor_type;location;lat;lon;timestamp;P1;durP1;ratioP1;P2;durP2;ratioP2
73940;SDS011;62294;48.554;10.202;2024-01-15T00:01:30;21.85;;;5.75;;
73940;SDS011;62294;48.554;10.202;2024-01-15T00:03:56;13.25;;;6.43;;
73940;SDS011;62294;48.554;10.202;2024-01-15T00:06:23;23.98;;;7.18;;
73940;SDS011;62294;48.554;10.202;2024-01-15T00:08:50;16.23;;;5.35;;
73940;SDS011;62294;48.554;10.202;2024-01-15T00:11:16;16.60;;;4.35;;
73940;SDS011;62294;48.554;10.202;2024-01-15T00:13:43;14.15;;;5.40;;
73940;SDS011;62294;48.554;10.202;2024-01-15T00:16:09;16.20;;;5.53;;
73940;SDS011;62294;48.554;10.202;2024-01-15T00:18:36;24.70;;;7.75;;
73940;SDS011;62294;48.554;10.202;2024-01-15T00:21:03;21.70;;;7.20;;
73940;SDS011;62294;48.554;10.202;2024-01-15T00:23:30;14.18;;;6.10;;
73940;SDS011;62294;48.554;10.202;2024-01-15T00:25:56;17.65;;;5.88;;
73940;SDS011;62294;48.554;10.202;2024-01-15T00:28:23;15.90;;;6.35;;
73940;SDS011;62294;48.554;10.202;2024-01-15T00:30:49;22.55;;;6.57;;
73940;SDS011;62294;48.554;10.202;2024-01-15T00:33:16;17.38;;;4.40;;
73940;SDS011;62294;48.554;10.202;2024-01-15T00:35:43;12.93;;;4.70;;
73940;SDS011;62294;48.554;10.202;2024-01-15T00:38:09;15.20;;;5.60;;
73940;SDS011;62294;48.554;10.202;2024-01-15T00:40:36;20.00;;;6.55;;
73940;SDS011;62294;48.554;10.202;2024-01-15T00:43:02;24.00;;;7.43;;
73940;SDS011;62294;48.554;10.202;2024-01-15T00:45:29;18.63;;;7.10;;
73940;SDS011;62294;48.554;10.202;2024-01-15T00:47:55;26.80;;;8.77;;
73940;SDS011;62294;48.554;10.202;2024-01-15T00:50:23;25.52;;;8.50;;
73940;SDS011;62294;48.554;10.202;2024-01-15T00:52:49;17.85;;;6.93;;
73940;SDS011;62294;48.554;10.202;2024-01-15T00:55:16;17.83;;;7.05;;
73940;SDS011;62294;48.554;10.202;2024-01-15T00:57:42;24.00;;;8.52;;
73940;SDS011;62294;48.554;10.202;2024-01-15T01:00:09;24.75;;;7.05;;
73940;SDS011;62294;48.554;10.202;2024-01-15T01:02:36;24.05;;;7.75;;
73940;SDS011;62294;48.554;10.202;2024-01-15T01:05:02;23.05;;;8.50;;
73940;SDS011;62294;48.554;10.202;2024-01-15T01:07:30;28.23;;;8.52;;
73940;SDS011;62294;48.554;10.202;2024-01-15T01:09:56;15.02;;;5.88;;
73940;SDS011;62294;48.554;10.202;2024-01-15T01:12:22;5.25;;;3.10;;
73940;SDS011;62294;48.554;10.202;2024-01-15T01:14:49;13.63;;;4.35;;
73940;SDS011;62294;48.554;10.202;2024-01-15T01:17:15;16.33;;;6.97;;
73940;SDS011;62294;48.554;10.202;2024-01-15T01:19:42;14.82;;;5.47;;
73940;SDS011;62294;48.554;10.202;2024-01-15T01:22:09;15.60;;;6.30;;
73940;SDS011;62294;48.554;10.202;2024-01-15T01:24:36;15.48;;;6.22;;
73940;SDS011;62294;48.554;10.202;2024-01-15T01:27:02;13.27;;;5.40;;
73940;SDS011;62294;48.554;10.202;2024-01-15T01:29:29;17.08;;;6.20;;
73940;SDS011;62294;48.554;10.202;2024-01-15T01:31:55;10.85;;;4.60;;
73940;SDS011;62294;48.554;10.202;2024-01-15T01:34:22;15.27;;;5.75;;
73940;SDS011;62294;48.554;10.202;2024-01-15T01:36:49;8.85;;;4.45;;
73940;SDS011;62294;48.554;10.202;2024-01-15T01:39:16;13.40;;;4.72;;
73940;SDS011;62294;48.554;10.202;2024-01-15T01:41:43;14.90;;;5.35;;
73940;SDS011;62294;48.554;10.202;2024-01-15T01:44:09;6.10;;;2.85;;
73940;SDS011;62294;48.554;10.202;2024-01-15T01:46:36;16.90;;;4.80;;
73940;SDS011;62294;48.554;10.202;2024-01-15T01:49:07;9.32;;;4.40;;
73940;SDS011;62294;48.554;10.202;2024-01-15T01:51:35;9.77;;;3.92;;
73940;SDS011;62294;48.554;10.202;2024-01-15T01:54:04;15.05;;;4.88;;
73940;SDS011;62294;48.554;10.202;2024-01-15T01:56:32;7.80;;;3.47;;
73940;SDS011;62294;48.554;10.202;2024-01-15T01:59:00;12.68;;;3.55;;
73940;SDS011;62294;48.554;10.202;2024-01-15T02:01:29;8.60;;;3.42;;
73940;SDS011;62294;48.554;10.202;2024-01-15T02:03:57;13.05;;;4.28;;
73940;SDS011;62294;48.554;10.202;2024-01-15T02:06:24;7.25;;;2.92;;
73940;SDS011;62294;48.554;10.202;2024-01-15T02:08:51;7.90;;;3.40;;
73940;SDS011;62294;48.554;10.202;2024-01-15T02:11:18;11.05;;;3.70;;
73940;SDS011;62294;48.554;10.202;2024-01-15T02:13:44;13.68;;;3.88;;
73940;SDS011;62294;48.554;10.202;2024-01-15T02:16:11;12.05;;;3.95;;
73940;SDS011;62294;48.554;10.202;2024-01-15T02:18:41;7.32;;;2.78;;
73940;SDS011;62294;48.554;10.202;2024-01-15T02:21:09;12.02;;;2.55;;
73940;SDS011;62294;48.554;10.202;2024-01-15T02:23:37;7.10;;;2.08;;
73940;SDS011;62294;48.554;10.202;2024-01-15T02:26:04;5.93;;;2.40;;
73940;SDS011;62294;48.554;10.202;2024-01-15T02:28:31;4.22;;;2.10;;
73940;SDS011;62294;48.554;10.202;2024-01-15T02:30:59;4.82;;;2.15;;
73940;SDS011;62294;48.554;10.202;2024-01-15T02:33:25;6.30;;;1.70;;
73940;SDS011;62294;48.554;10.202;2024-01-15T02:35:52;7.53;;;2.83;;
73940;SDS011;62294;48.554;10.202;2024-01-15T02:38:19;4.25;;;1.88;;
73940;SDS011;62294;48.554;10.202;2024-01-15T02:40:45;2.55;;;1.70;;
73940;SDS011;62294;48.554;10.202;2024-01-15T02:43:13;4.43;;;1.83;;
73940;SDS011;62294;48.554;10.202;2024-01-15T02:45:40;3.90;;;1.70;;
73940;SDS011;62294;48.554;10.202;2024-01-15T02:48:07;3.90;;;2.20;;
73940;SDS011;62294;48.554;10.202;2024-01-15T02:50:33;0.95;;;0.73;;
73940;SDS011;62294;48.554;10.202;2024-01-15T02:53:00;6.88;;;2.83;;
73940;SDS011;62294;48.554;10.202;2024-01-15T02:55:26;0.70;;;0.70;;
73940;SDS011;62294;48.554;10.202;2024-01-15T02:57:55;4.82;;;2.35;;
73940;SDS011;62294;48.554;10.202;2024-01-15T03:00:22;5.68;;;2.15;;
73940;SDS011;62294;48.554;10.202;2024-01-15T03:02:50;6.45;;;1.10;;
73940;SDS011;62294;48.554;10.202;2024-01-15T03:05:17;1.10;;;1.00;;
73940;SDS011;62294;48.554;10.202;2024-01-15T03:07:44;6.25;;;2.38;;
73940;SDS011;62294;48.554;10.202;2024-01-15T03:10:10;3.20;;;1.60;;
73940;SDS011;62294;48.554;10.202;2024-01-15T03:12:37;3.55;;;1.40;;
73940;SDS011;62294;48.554;10.202;2024-01-15T03:15:04;4.38;;;2.15;;
73940;SDS011;62294;48.554;10.202;2024-01-15T03:17:31;3.13;;;1.60;;
73940;SDS011;62294;48.554;10.202;2024-01-15T03:19:57;4.88;;;2.25;;
73940;SDS011;62294;48.554;10.202;2024-01-15T03:22:24;6.43;;;2.33;;
73940;SDS011;62294;48.554;10.202;2024-01-15T03:24:50;4.50;;;2.38;;
73940;SDS011;62294;48.554;10.202;2024-01-15T03:27:17;2.42;;;1.90;;
73940;SDS011;62294;48.554;10.202;2024-01-15T03:29:44;2.88;;;1.75;;
73940;SDS011;62294;48.554;10.202;2024-01-15T03:32:10;6.43;;;2.58;;
73940;SDS011;62294;48.554;10.202;2024-01-15T03:34:37;1.27;;;1.20;;
73940;SDS011;62294;48.554;10.202;2024-01-15T03:37:04;5.85;;;2.15;;
73940;SDS011;62294;48.554;10.202;2024-01-15T03:39:30;4.10;;;2.55;;
73940;SDS011;62294;48.554;10.202;2024-01-15T03:41:57;4.05;;;1.67;;
73940;SDS011;62294;48.554;10.202;2024-01-15T03:44:24;3.45;;;2.05;;
73940;SDS011;62294;48.554;10.202;2024-01-15T03:46:50;4.85;;;2.35;;
73940;SDS011;62294;48.554;10.202;2024-01-15T03:49:17;9.02;;;2.95;;
73940;SDS011;62294;48.554;10.202;2024-01-15T03:51:44;7.25;;;2.13;;
73940;SDS011;62294;48.554;10.202;2024-01-15T03:54:11;6.43;;;3.15;;
73940;SDS011;62294;48.554;10.202;2024-01-15T03:56:38;2.63;;;1.08;;
73940;SDS011;62294;48.554;10.202;2024-01-15T03:59:04;9.63;;;2.50;;
73940;SDS011;62294;48.554;10.202;2024-01-15T04:01:31;4.05;;;1.75;;
73940;SDS011;62294;48.554;10.202;2024-01-15T04:03:57;5.40;;;2.08;;
73940;SDS011;62294;48.554;10.202;2024-01-15T04:06:24;2.95;;;1.35;;
73940;SDS011;62294;48.554;10.202;2024-01-15T04:08:50;1.67;;;1.27;;
73940;SDS011;62294;48.554;10.202;2024-01-15T04:11:17;4.45;;;2.53;;
73940;SDS011;62294;48.554;10.202;2024-01-15T04:13:43;0.65;;;0.50;;
73940;SDS011;62294;48.554;10.202;2024-01-15T04:16:10;4.65;;;2.25;;
73940;SDS011;62294;48.554;10.202;2024-01-15T04:18:36;4.47;;;2.75;;
73940;SDS011;62294;48.554;10.202;2024-01-15T04:21:04;2.38;;;1.27;;
73940;SDS011;62294;48.554;10.202;2024-01-15T04:23:32;3.22;;;2.03;;
73940;SDS011;62294;48.554;10.202;2024-01-15T04:25:59;4.05;;;1.67;;
73940;SDS011;62294;48.554;10.202;2024-01-15T04:28:25;1.83;;;1.25;;
73940;SDS011;62294;48.554;10.202;2024-01-15T04:30:52;7.93;;;2.65;;
73940;SDS011;62294;48.554;10.202;2024-01-15T04:33:19;3.63;;;2.10;;
73940;SDS011;62294;48.554;10.202;2024-01-15T04:35:45;3.30;;;1.98;;
73940;SDS011;62294;48.554;10.202;2024-01-15T04:38:12;2.58;;;2.08;;
73940;SDS011;62294;48.554;10.202;2024-01-15T04:40:39;1.33;;;0.93;;
73940;SDS011;62294;48.554;10.202;2024-01-15T04:43:05;0.63;;;0.63;;
73940;SDS011;62294;48.554;10.202;2024-01-15T04:45:32;1.73;;;0.82;;
73940;SDS011;62294;48.554;10.202;2024-01-15T04:47:58;4.47;;;2.67;;
73940;SDS011;62294;48.554;10.202;2024-01-15T04:50:25;0.63;;;0.60;;
73940;SDS011;62294;48.554;10.202;2024-01-15T04:52:51;4.32;;;2.10;;
73940;SDS011;62294;48.554;10.202;2024-01-15T04:55:18;2.10;;;1.50;;
73940;SDS011;62294;48.554;10.202;2024-01-15T04:57:45;3.00;;;2.38;;
73940;SDS011;62294;48.554;10.202;2024-01-15T05:00:12;3.10;;;0.70;;
73940;SDS011;62294;48.554;10.202;2024-01-15T05:02:40;2.42;;;1.67;;
73940;SDS011;62294;48.554;10.202;2024-01-15T05:05:06;3.80;;;2.47;;
73940;SDS011;62294;48.554;10.202;2024-01-15T05:07:33;5.80;;;1.85;;
73940;SDS011;62294;48.554;10.202;2024-01-15T05:10:00;4.15;;;1.23;;
73940;SDS011;62294;48.554;10.202;2024-01-15T05:12:27;3.88;;;1.48;;
73940;SDS011;62294;48.554;10.202;2024-01-15T05:14:53;2.13;;;1.17;;
73940;SDS011;62294;48.554;10.202;2024-01-15T05:17:19;4.03;;;2.35;;
73940;SDS011;62294;48.554;10.202;2024-01-15T05:19:46;2.28;;;1.75;;
73940;SDS011;62294;48.554;10.202;2024-01-15T05:22:13;8.60;;;2.20;;
73940;SDS011;62294;48.554;10.202;2024-01-15T05:24:39;3.10;;;1.33;;
73940;SDS011;62294;48.554;10.202;2024-01-15T05:27:06;3.03;;;1.90;;
73940;SDS011;62294;48.554;10.202;2024-01-15T05:29:32;3.55;;;1.25;;
73940;SDS011;62294;48.554;10.202;2024-01-15T05:31:59;2.30;;;1.23;;
73940;SDS011;62294;48.554;10.202;2024-01-15T05:34:28;4.03;;;2.47;;
73940;SDS011;62294;48.554;10.202;2024-01-15T05:36:54;4.85;;;2.55;;
73940;SDS011;62294;48.554;10.202;2024-01-15T05:39:21;0.55;;;0.55;;
73940;SDS011;62294;48.554;10.202;2024-01-15T05:41:49;1.48;;;1.15;;
73940;SDS011;62294;48.554;10.202;2024-01-15T05:44:15;1.90;;;1.58;;
73940;SDS011;62294;48.554;10.202;2024-01-15T05:46:42;2.80;;;2.25;;
73940;SDS011;62294;48.554;10.202;2024-01-15T05:49:09;1.77;;;1.67;;
73940;SDS011;62294;48.554;10.202;2024-01-15T05:51:35;7.00;;;1.98;;
73940;SDS011;62294;48.554;10.202;2024-01-15T05:54:03;3.08;;;2.42;;
73940;SDS011;62294;48.554;10.202;2024-01-15T05:56:29;3.55;;;1.77;;
73940;SDS011;62294;48.554;10.202;2024-01-15T05:58:56;1.48;;;1.08;;
73940;SDS011;62294;48.554;10.202;2024-01-15T06:01:22;5.68;;;1.88;;
73940;SDS011;62294;48.554;10.202;2024-01-15T06:03:49;1.75;;;1.40;;
73940;SDS011;62294;48.554;10.202;2024-01-15T06:06:15;2.88;;;2.03;;
73940;SDS011;62294;48.554;10.202;2024-01-15T06:08:42;4.30;;;2.17;;
73940;SDS011;62294;48.554;10.202;2024-01-15T06:11:08;2.50;;;1.75;;
73940;SDS011;62294;48.554;10.202;2024-01-15T06:13:35;1.65;;;1.17;;
73940;SDS011;62294;48.554;10.202;2024-01-15T06:16:01;3.15;;;2.83;;
73940;SDS011;62294;48.554;10.202;2024-01-15T06:18:31;1.77;;;1.38;;
73940;SDS011;62294;48.554;10.202;2024-01-15T06:20:58;2.22;;;1.70;;
73940;SDS011;62294;48.554;10.202;2024-01-15T06:23:24;4.45;;;2.03;;
73940;SDS011;62294;48.554;10.202;2024-01-15T06:25:50;1.52;;;0.98;;
73940;SDS011;62294;48.554;10.202;2024-01-15T06:28:17;3.42;;;1.63;;
73940;SDS011;62294;48.554;10.202;2024-01-15T06:30:43;3.08;;;1.77;;
73940;SDS011;62294;48.554;10.202;2024-01-15T06:33:10;4.38;;;1.23;;
73940;SDS011;62294;48.554;10.202;2024-01-15T06:35:37;2.35;;;1.52;;
73940;SDS011;62294;48.554;10.202;2024-01-15T06:38:03;6.57;;;2.05;;
73940;SDS011;62294;48.554;10.202;2024-01-15T06:40:30;1.15;;;0.93;;
73940;SDS011;62294;48.554;10.202;2024-01-15T06:42:56;1.70;;;1.02;;
73940;SDS011;62294;48.554;10.202;2024-01-15T06:45:23;4.63;;;1.83;;
73940;SDS011;62294;48.554;10.202;2024-01-15T06:47:49;2.80;;;1.70;;
73940;SDS011;62294;48.554;10.202;2024-01-15T06:50:16;1.90;;;1.27;;
73940;SDS011;62294;48.554;10.202;2024-01-15T06:52:42;2.85;;;1.50;;
73940;SDS011;62294;48.554;10.202;2024-01-15T06:55:09;4.35;;;1.23;;
73940;SDS011;62294;48.554;10.202;2024-01-15T06:57:35;3.78;;;2.05;;
73940;SDS011;62294;48.554;10.202;2024-01-15T07:00:02;5.90;;;2.22;;
73940;SDS011;62294;48.554;10.202;2024-01-15T07:02:34;5.53;;;2.38;;
73940;SDS011;62294;48.554;10.202;2024-01-15T07:05:00;3.42;;;1.60;;
73940;SDS011;62294;48.554;10.202;2024-01-15T07:07:27;4.03;;;2.60;;
73940;SDS011;62294;48.554;10.202;2024-01-15T07:09:55;1.48;;;1.17;;
73940;SDS011;62294;48.554;10.202;2024-01-15T07:12:22;7.40;;;2.97;;
73940;SDS011;62294;48.554;10.202;2024-01-15T07:14:49;4.97;;;2.10;;
73940;SDS011;62294;48.554;10.202;2024-01-15T07:17:15;4.15;;;2.40;;
73940;SDS011;62294;48.554;10.202;2024-01-15T07:19:42;1.52;;;1.23;;
73940;SDS011;62294;48.554;10.202;2024-01-15T07:22:09;3.25;;;1.65;;
73940;SDS011;62294;48.554;10.202;2024-01-15T07:24:36;4.18;;;1.50;;
73940;SDS011;62294;48.554;10.202;2024-01-15T07:27:03;1.58;;;1.45;;
73940;SDS011;62294;48.554;10.202;2024-01-15T07:29:31;2.42;;;1.55;;
73940;SDS011;62294;48.554;10.202;2024-01-15T07:31:59;2.55;;;1.45;;
73940;SDS011;62294;48.554;10.202;2024-01-15T07:34:25;7.35;;;3.17;;
73940;SDS011;62294;48.554;10.202;2024-01-15T07:36:52;3.67;;;1.88;;
73940;SDS011;62294;48.554;10.202;2024-01-15T07:39:19;4.65;;;2.33;;
73940;SDS011;62294;48.554;10.202;2024-01-15T07:41:45;3.75;;;1.95;;
73940;SDS011;62294;48.554;10.202;2024-01-15T07:44:12;4.47;;;2.33;;
73940;SDS011;62294;48.554;10.202;2024-01-15T07:46:38;6.72;;;3.00;;
73940;SDS011;62294;48.554;10.202;2024-01-15T07:49:06;5.68;;;2.30;;
73940;SDS011;62294;48.554;10.202;2024-01-15T07:51:32;5.25;;;2.45;;
73940;SDS011;62294;48.554;10.202;2024-01-15T07:53:59;3.60;;;2.20;;
73940;SDS011;62294;48.554;10.202;2024-01-15T07:56:26;2.92;;;1.85;;
73940;SDS011;62294;48.554;10.202;2024-01-15T07:58:53;3.85;;;1.63;;
73940;SDS011;62294;48.554;10.202;2024-01-15T08:01:20;3.80;;;2.20;;
73940;SDS011;62294;48.554;10.202;2024-01-15T08:03:47;6.90;;;3.10;;
73940;SDS011;62294;48.554;10.202;2024-01-15T08:06:14;3.92;;;1.77;;
73940;SDS011;62294;48.554;10.202;2024-01-15T08:08:41;5.53;;;2.90;;
73940;SDS011;62294;48.554;10.202;2024-01-15T08:11:08;2.22;;;1.90;;
73940;SDS011;62294;48.554;10.202;2024-01-15T08:13:34;5.78;;;2.20;;
73940;SDS011;62294;48.554;10.202;2024-01-15T08:16:01;2.25;;;1.58;;
73940;SDS011;62294;48.554;10.202;2024-01-15T08:18:28;4.55;;;2.30;;
73940;SDS011;62294;48.554;10.202;2024-01-15T08:20:55;2.25;;;2.00;;
73940;SDS011;62294;48.554;10.202;2024-01-15T08:23:21;3.83;;;2.10;;
73940;SDS011;62294;48.554;10.202;2024-01-15T08:25:48;3.38;;;1.63;;
73940;SDS011;62294;48.554;10.202;2024-01-15T08:28:14;4.18;;;2.28;;
73940;SDS011;62294;48.554;10.202;2024-01-15T08:30:41;3.30;;;2.13;;
73940;SDS011;62294;48.554;10.202;2024-01-15T08:33:07;3.00;;;2.03;;
73940;SDS011;62294;48.554;10.202;2024-01-15T08:35:46;5.55;;;2.30;;
73940;SDS011;62294;48.554;10.202;2024-01-15T08:38:13;3.40;;;2.67;;
73940;SDS011;62294;48.554;10.202;2024-01-15T08:40:40;8.60;;;2.55;;
73940;SDS011;62294;48.554;10.202;2024-01-15T08:43:06;4.50;;;2.03;;
73940;SDS011;62294;48.554;10.202;2024-01-15T08:45:33;5.55;;;2.00;;
73940;SDS011;62294;48.554;10.202;2024-01-15T08:47:59;3.70;;;2.47;;
73940;SDS011;62294;48.554;10.202;2024-01-15T08:50:27;1.52;;;1.25;;
73940;SDS011;62294;48.554;10.202;2024-01-15T08:52:55;6.13;;;2.80;;
73940;SDS011;62294;48.554;10.202;2024-01-15T08:55:22;5.63;;;2.80;;
73940;SDS011;62294;48.554;10.202;2024-01-15T08:57:51;6.28;;;2.30;;
73940;SDS011;62294;48.554;10.202;2024-01-15T09:00:17;2.63;;;2.17;;
73940;SDS011;62294;48.554;10.202;2024-01-15T09:02:44;4.68;;;2.42;;
73940;SDS011;62294;48.554;10.202;2024-01-15T09:05:11;2.10;;;1.90;;
73940;SDS011;62294;48.554;10.202;2024-01-15T09:07:38;1.88;;;1.05;;
73940;SDS011;62294;48.554;10.202;2024-01-15T09:10:04;3.17;;;2.10;;
73940;SDS011;62294;48.554;10.202;2024-01-15T09:12:31;3.22;;;1.77;;
73940;SDS011;62294;48.554;10.202;2024-01-15T09:14:58;3.60;;;2.35;;
73940;SDS011;62294;48.554;10.202;2024-01-15T09:17:24;1.48;;;1.33;;
73940;SDS011;62294;48.554;10.202;2024-01-15T09:19:51;3.65;;;2.50;;
73940;SDS011;62294;48.554;10.202;2024-01-15T09:22:17;4.18;;;3.08;;
73940;SDS011;62294;48.554;10.202;2024-01-15T09:24:45;4.22;;;1.55;;
73940;SDS011;62294;48.554;10.202;2024-01-15T09:27:11;3.75;;;1.63;;
73940;SDS011;62294;48.554;10.202;2024-01-15T09:29:38;7.30;;;2.30;;
73940;SDS011;62294;48.554;10.202;2024-01-15T09:32:08;3.05;;;1.45;;
73940;SDS011;62294;48.554;10.202;2024-01-15T09:34:34;3.08;;;1.75;;
73940;SDS011;62294;48.554;10.202;2024-01-15T09:37:01;2.60;;;1.05;;
73940;SDS011;62294;48.554;10.202;2024-01-15T09:39:29;3.40;;;1.65;;
73940;SDS011;62294;48.554;10.202;2024-01-15T09:41:57;4.90;;;2.22;;
73940;SDS011;62294;48.554;10.202;2024-01-15T09:44:24;4.38;;;1.90;;
73940;SDS011;62294;48.554;10.202;2024-01-15T09:46:52;1.52;;;1.13;;
73940;SDS011;62294;48.554;10.202;2024-01-15T09:49:21;3.10;;;1.60;;
73940;SDS011;62294;48.554;10.202;2024-01-15T09:51:48;2.95;;;1.85;;
73940;SDS011;62294;48.554;10.202;2024-01-15T09:54:28;1.83;;;1.58;;
73940;SDS011;62294;48.554;10.202;2024-01-15T09:56:54;1.70;;;1.45;;
73940;SDS011;62294;48.554;10.202;2024-01-15T09:59:21;2.88;;;1.35;;
73940;SDS011;62294;48.554;10.202;2024-01-15T10:01:48;2.15;;;1.33;;
73940;SDS011;62294;48.554;10.202;2024-01-15T10:04:16;1.02;;;0.90;;
73940;SDS011;62294;48.554;10.202;2024-01-15T10:06:44;2.80;;;1.65;;
73940;SDS011;62294;48.554;10.202;2024-01-15T10:09:14;1.77;;;1.35;;
73940;SDS011;62294;48.554;10.202;2024-01-15T10:11:41;6.35;;;1.60;;
73940;SDS011;62294;48.554;10.202;2024-01-15T10:14:09;2.67;;;1.48;;
73940;SDS011;62294;48.554;10.202;2024-01-15T10:16:39;4.93;;;1.92;;
73940;SDS011;62294;48.554;10.202;2024-01-15T10:19:06;5.18;;;1.13;;
73940;SDS011;62294;48.554;10.202;2024-01-15T10:21:34;1.67;;;1.13;;
73940;SDS011;62294;48.554;10.202;2024-01-15T10:24:02;1.50;;;1.35;;
73940;SDS011;62294;48.554;10.202;2024-01-15T10:26:30;4.25;;;2.25;;
73940;SDS011;62294;48.554;10.202;2024-01-15T10:29:00;1.95;;;1.50;;
73940;SDS011;62294;48.554;10.202;2024-01-15T10:31:27;2.38;;;1.58;;
73940;SDS011;62294;48.554;10.202;2024-01-15T10:34:09;2.17;;;1.25;;
73940;SDS011;62294;48.554;10.202;2024-01-15T10:36:39;1.60;;;1.15;;
73940;SDS011;62294;48.554;10.202;2024-01-15T10:39:06;3.45;;;1.58;;
73940;SDS011;62294;48.554;10.202;2024-01-15T10:41:33;2.63;;;1.52;;
73940;SDS011;62294;48.554;10.202;2024-01-15T10:44:00;2.00;;;1.25;;
73940;SDS011;62294;48.554;10.202;2024-01-15T10:46:27;1.40;;;1.15;;
73940;SDS011;62294;48.554;10.202;2024-01-15T10:48:55;4.35;;;1.85;;
73940;SDS011;62294;48.554;10.202;2024-01-15T10:51:21;4.45;;;0.93;;
73940;SDS011;62294;48.554;10.202;2024-01-15T10:53:49;3.05;;;1.15;;
73940;SDS011;62294;48.554;10.202;2024-01-15T10:56:16;3.20;;;1.58;;
73940;SDS011;62294;48.554;10.202;2024-01-15T10:58:44;1.63;;;1.10;;
73940;SDS011;62294;48.554;10.202;2024-01-15T11:01:12;1.08;;;0.98;;
73940;SDS011;62294;48.554;10.202;2024-01-15T11:03:39;1.95;;;1.20;;
73940;SDS011;62294;48.554;10.202;2024-01-15T11:06:16;8.65;;;1.63;;
73940;SDS011;62294;48.554;10.202;2024-01-15T11:08:49;5.72;;;1.65;;
73940;SDS011;62294;48.554;10.202;2024-01-15T11:11:18;5.22;;;1.40;;
73940;SDS011;62294;48.554;10.202;2024-01-15T11:13:47;2.03;;;1.02;;
73940;SDS011;62294;48.554;10.202;2024-01-15T11:16:16;2.92;;;1.00;;
73940;SDS011;62294;48.554;10.202;2024-01-15T11:18:43;3.60;;;1.15;;
73940;SDS011;62294;48.554;10.202;2024-01-15T11:21:28;5.75;;;1.70;;
73940;SDS011;62294;48.554;10.202;2024-01-15T11:24:01;1.60;;;1.02;;
73940;SDS011;62294;48.554;10.202;2024-01-15T11:29:00;1.08;;;0.98;;
73940;SDS011;62294;48.554;10.202;2024-01-15T11:31:30;2.88;;;1.08;;
73940;SDS011;62294;48.554;10.202;2024-01-15T11:34:16;0.82;;;0.82;;
73940;SDS011;62294;48.554;10.202;2024-01-15T11:37:00;2.03;;;1.25;;
73940;SDS011;62294;48.554;10.202;2024-01-15T11:41:56;0.60;;;0.60;;
73940;SDS011;62294;48.554;10.202;2024-01-15T11:44:22;0.68;;;0.68;;
73940;SDS011;62294;48.554;10.202;2024-01-15T11:46:59;1.60;;;1.17;;
73940;SDS011;62294;48.554;10.202;2024-01-15T11:52:33;3.10;;;1.00;;
73940;SDS011;62294;48.554;10.202;2024-01-15T11:55:06;1.10;;;0.98;;
73940;SDS011;62294;48.554;10.202;2024-01-15T11:57:40;2.22;;;1.20;;
73940;SDS011;62294;48.554;10.202;2024-01-15T12:00:07;1.77;;;0.90;;
73940;SDS011;62294;48.554;10.202;2024-01-15T12:02:35;0.47;;;0.47;;
73940;SDS011;62294;48.554;10.202;2024-01-15T12:05:02;1.13;;;1.02;;
73940;SDS011;62294;48.554;10.202;2024-01-15T12:07:29;4.43;;;1.08;;
73940;SDS011;62294;48.554;10.202;2024-01-15T12:09:55;1.40;;;1.08;;
73940;SDS011;62294;48.554;10.202;2024-01-15T12:12:33;2.97;;;1.23;;
73940;SDS011;62294;48.554;10.202;2024-01-15T12:15:20;0.75;;;0.75;;
73940;SDS011;62294;48.554;10.202;2024-01-15T12:17:46;1.15;;;0.90;;
73940;SDS011;62294;48.554;10.202;2024-01-15T12:20:14;5.95;;;0.90;;
73940;SDS011;62294;48.554;10.202;2024-01-15T12:22:42;1.73;;;1.33;;
73940;SDS011;62294;48.554;10.202;2024-01-15T12:25:25;2.20;;;1.08;;
73940;SDS011;62294;48.554;10.202;2024-01-15T12:27:55;1.30;;;1.20;;
73940;SDS011;62294;48.554;10.202;2024-01-15T12:30:23;2.53;;;1.45;;
73940;SDS011;62294;48.554;10.202;2024-01-15T12:32:50;0.90;;;0.90;;
73940;SDS011;62294;48.554;10.202;2024-01-15T12:35:16;1.75;;;1.08;;
73940;SDS011;62294;48.554;10.202;2024-01-15T12:37:43;1.30;;;1.13;;
73940;SDS011;62294;48.554;10.202;2024-01-15T12:40:12;3.33;;;1.33;;
73940;SDS011;62294;48.554;10.202;2024-01-15T12:42:41;3.33;;;1.83;;
73940;SDS011;62294;48.554;10.202;2024-01-15T12:45:11;2.70;;;1.77;;
73940;SDS011;62294;48.554;10.202;2024-01-15T12:47:41;2.47;;;1.77;;
73940;SDS011;62294;48.554;10.202;2024-01-15T12:50:09;5.43;;;1.67;;
73940;SDS011;62294;48.554;10.202;2024-01-15T12:52:45;0.77;;;0.77;;
73940;SDS011;62294;48.554;10.202;2024-01-15T12:55:13;1.77;;;1.40;;
73940;SDS011;62294;48.554;10.202;2024-01-15T12:57:40;2.40;;;1.40;;
73940;SDS011;62294;48.554;10.202;2024-01-15T13:00:07;2.05;;;1.27;;
73940;SDS011;62294;48.554;10.202;2024-01-15T13:02:39;2.10;;;1.58;;
73940;SDS011;62294;48.554;10.202;2024-01-15T13:05:07;2.05;;;1.33;;
73940;SDS011;62294;48.554;10.202;2024-01-15T13:07:35;1.42;;;1.20;;
73940;SDS011;62294;48.554;10.202;2024-01-15T13:10:01;1.90;;;1.40;;
73940;SDS011;62294;48.554;10.202;2024-01-15T13:12:28;1.85;;;1.17;;
73940;SDS011;62294;48.554;10.202;2024-01-15T13:14:55;1.35;;;1.10;;
73940;SDS011;62294;48.554;10.202;2024-01-15T13:17:22;1.95;;;1.50;;
73940;SDS011;62294;48.554;10.202;2024-01-15T13:19:49;2.85;;;1.67;;
73940;SDS011;62294;48.554;10.202;2024-01-15T13:22:16;4.15;;;1.63;;
73940;SDS011;62294;48.554;10.202;2024-01-15T13:24:42;0.90;;;0.90;;
73940;SDS011;62294;48.554;10.202;2024-01-15T13:27:09;0.95;;;0.63;;
73940;SDS011;62294;48.554;10.202;2024-01-15T13:29:38;3.05;;;1.30;;
73940;SDS011;62294;48.554;10.202;2024-01-15T13:32:04;3.15;;;1.80;;
73940;SDS011;62294;48.554;10.202;2024-01-15T13:34:31;1.80;;;1.00;;
73940;SDS011;62294;48.554;10.202;2024-01-15T13:36:58;1.15;;;0.85;;
73940;SDS011;62294;48.554;10.202;2024-01-15T13:39:24;1.17;;;0.98;;
73940;SDS011;62294;48.554;10.202;2024-01-15T13:41:51;6.05;;;2.35;;
73940;SDS011;62294;48.554;10.202;2024-01-15T13:44:17;5.70;;;2.65;;
73940;SDS011;62294;48.554;10.202;2024-01-15T13:46:44;5.38;;;3.75;;
73940;SDS011;62294;48.554;10.202;2024-01-15T13:49:10;1.85;;;1.35;;
73940;SDS011;62294;48.554;10.202;2024-01-15T13:51:37;2.35;;;1.40;;
73940;SDS011;62294;48.554;10.202;2024-01-15T13:54:04;3.10;;;1.98;;
73940;SDS011;62294;48.554;10.202;2024-01-15T13:56:30;4.32;;;1.77;;
73940;SDS011;62294;48.554;10.202;2024-01-15T13:59:01;2.13;;;1.23;;
73940;SDS011;62294;48.554;10.202;2024-01-15T14:01:30;3.30;;;1.92;;
73940;SDS011;62294;48.554;10.202;2024-01-15T14:03:57;1.20;;;0.77;;
73940;SDS011;62294;48.554;10.202;2024-01-15T14:06:24;1.67;;;1.08;;
73940;SDS011;62294;48.554;10.202;2024-01-15T14:08:51;4.60;;;1.77;;
73940;SDS011;62294;48.554;10.202;2024-01-15T14:11:18;3.90;;;1.63;;
73940;SDS011;62294;48.554;10.202;2024-01-15T14:13:44;2.63;;;1.73;;
73940;SDS011;62294;48.554;10.202;2024-01-15T14:16:13;1.80;;;1.35;;
73940;SDS011;62294;48.554;10.202;2024-01-15T14:18:40;2.67;;;1.23;;
73940;SDS011;62294;48.554;10.202;2024-01-15T14:21:06;2.67;;;1.33;;
73940;SDS011;62294;48.554;10.202;2024-01-15T14:23:33;2.05;;;1.40;;
73940;SDS011;62294;48.554;10.202;2024-01-15T14:26:00;0.85;;;0.85;;
73940;SDS011;62294;48.554;10.202;2024-01-15T14:28:26;2.42;;;1.45;;
73940;SDS011;62294;48.554;10.202;2024-01-15T14:30:53;2.88;;;1.67;;
73940;SDS011;62294;48.554;10.202;2024-01-15T14:33:20;0.80;;;0.60;;
73940;SDS011;62294;48.554;10.202;2024-01-15T14:35:46;6.55;;;2.70;;
73940;SDS011;62294;48.554;10.202;2024-01-15T14:38:13;4.43;;;2.67;;
73940;SDS011;62294;48.554;10.202;2024-01-15T14:40:39;1.63;;;1.52;;
73940;SDS011;62294;48.554;10.202;2024-01-15T14:43:06;1.35;;;1.27;;